Madison, WI (53716)

7:38 AM CDT on August 30, 2015 (GMT -0500)
Glendale | | Change Station
CLOSE
Current Station
Personal Weather Station
Location: Madison, WI
Elevation: 912 ft
Nearby Weather Stations
Active Advisory: Special Statement

Elev 912 ft 43.06 °N, 89.31 °W | Updated 8 minutes ago

Overcast
Overcast
64.4 °F
Feels Like 64.4 °F
N
0.0
Wind Variable Wind from North
Gusts 0.0 mph

Today
High -- | Low -- °F
--% Chance of Precip.
Yesterday
High -- | Low -- °F
Precip. -- in
6:19 AM 7:35 PM
Full, 99% visible
Pressure 30.07 in
Visibility 8.0 miles
Clouds Scattered Clouds 2200 ft
Dew Point 64 °F
Humidity 98%
Rainfall 0.00 in
Snow Depth Not available.
UV 1 out of 12
Pollen 9.50 out of 12
Air Quality Not available.
Flu Activity Not available.
SPECI KMSN 301231Z 00000KT 8SM SCT022 17/16 A3007 RMK AO2 T01720161
Pressure 30.07 in
Visibility 8.0 miles
Clouds Scattered Clouds 2200 ft
Dew Point 64 °F
Humidity 98%
Rainfall 0.00 in
Snow Depth Not available.
UV 1 out of 12
Pollen 9.50 out of 12
Air Quality Not available.
Flu Activity Not available.
SPECI KMSN 301231Z 00000KT 8SM SCT022 17/16 A3007 RMK AO2 T01720161

10-Day Weather Forecast

×

Almanac

Astronomy

Aug. 30, 2015 Rise Set
Actual Time
Civil Twilight
Nautical Twilight
Astronomical Twilight
Moon
Length of Visible Light
Length of Day
Tomorrow will be .
, % of the Moon is Illuminated

Today's Extremes

State Highs State Lows

Community

WunderPhotos

Upload Photos

1,850,940 photos uploaded!

WunderBlogs® & News

Nearby

Air Quality

  Air Quality AQ Index Pollutant
Not available.

Snow Depth

Station Depth Elevation

Earthquake Activity

City Distance Mag. Time & Date
Minimum magnitude displayed is 2.5.

Coastal Water Temperatures

Place Temperature

Stations

Nearby Weather Stations

Station Location Temp. Windchill Dew Point Humidity Wind Precip. Elev Updated Type
                   
Special Statement
Statement as of 6:53 AM CDT on August 30, 2015

... Fog will begin to lift through mid-morning...

Look for areas of fog... and locally dense fog with visibilities
of 1/4 mile or less... to begin to dissipate between 7 am and 9
am. Warming temperatures and slowly increasing winds will help
dissipate the fog.

Drivers should still be alert for varying driving conditions
this morning until the fog lifts. Slow down... use low-beam
headlights and leave plenty of distance between you and other
vehicles.


Rem

653 am CDT sun Aug 30 2015

... Fog will begin to lift through mid-morning...

Look for areas of fog... and locally dense fog with visibilities
of 1/4 mile or less... to begin to dissipate between 7 am and 9
am. Warming temperatures and slowly increasing winds will help
dissipate the fog.

Drivers should still be alert for varying driving conditions
this morning until the fog lifts. Slow down... use low-beam
headlights and leave plenty of distance between you and other
vehicles.


Rem